Capeville, Virginia
Current Conditions -  °F | °C
As of 9:48 AM on Monday 22 Dec 2014 (Local Time) from KLFI Reporting Station
Light Rain Light Rain  
Wind Chill: 33°   Ceiling: 5500
Heat Index: 41°   Visibility: 2mi
Dew Point: 39°   Wind: 14mph
Humidity: 93%   Direction: 70°ENE
Pressure: 30.2"   Gusts: NA
Location:  37.2°N, 75.96°W
Report Text: KLFI 221448Z AUTO 07012KT 2SM -RA BR SCT026 OVC055 05/04 A3020 RMK AO2 UPB1433E1440 CIG 031 RWY26 $
Loading
Personal Weather Stations






























Interactive Weather Map New forecast layout! Learn more

10-Day Weather Forecast

Advertisements
Track Severe Weather on mobile